Time;durP1;ratioP1;P1;durP2;ratioP2;P2;SDS_P1;SDS_P2;PMS_P1;PMS_P2;Temp;Humidity;BMP_temperature;BMP_pressure;BME280_temperature;BME280_humidity;BME280_pressure;Samples;Min_cycle;Max_cycle;Signal;HPM_P1;HPM_P2
2022/05/13 00:01:19;;;;;;;4.40;2.00;;;;;;;;;;5058900;28;20218;-73
2022/05/13 00:03:48;;;;;;;4.13;2.77;;;;;;;;;;5059214;28;20298;-72
2022/05/13 00:06:16;;;;;;;6.93;2.03;;;;;;;;;;5065297;28;20226;-73
2022/05/13 00:08:44;;;;;;;6.07;1.80;;;;;;;;;;5078793;28;20255;-73
2022/05/13 00:11:13;;;;;;;3.50;2.10;;;;;;;;;;5078616;28;20214;-74
2022/05/13 00:13:42;;;;;;;6.80;1.93;;;;;;;;;;5077791;28;20684;-71
2022/05/13 00:16:10;;;;;;;6.67;2.13;;;;;;;;;;5072663;28;20222;-73
2022/05/13 00:18:38;;;;;;;4.37;2.30;;;;;;;;;;5058683;28;20230;-72
2022/05/13 00:21:06;;;;;;;2.57;2.17;;;;;;;;;;5058270;28;20567;-72
2022/05/13 00:23:34;;;;;;;4.40;2.00;;;;;;;;;;5058444;28;20237;-72
2022/05/13 00:26:02;;;;;;;3.30;1.90;;;;;;;;;;5065437;28;20716;-74
2022/05/13 00:28:32;;;;;;;2.53;1.97;;;;;;;;;;5076524;28;20558;-74
2022/05/13 00:31:04;;;;;;;6.43;2.23;;;;;;;;;;5078661;28;20213;-72
2022/05/13 00:33:33;;;;;;;5.47;2.20;;;;;;;;;;5078523;28;20205;-73
2022/05/13 00:36:01;;;;;;;7.80;3.23;;;;;;;;;;5075310;28;20222;-73
2022/05/13 00:38:29;;;;;;;5.53;2.07;;;;;;;;;;5077793;28;20256;-74
2022/05/13 00:40:57;;;;;;;3.90;2.23;;;;;;;;;;5078277;28;20245;-74
2022/05/13 00:43:40;;;;;;;4.63;2.70;;;;;;;;;;5076253;28;20229;-71
2022/05/13 00:46:08;;;;;;;8.33;4.20;;;;;;;;;;5058217;28;20257;-71
2022/05/13 00:48:36;;;;;;;6.20;1.90;;;;;;;;;;5058128;28;20213;-71
2022/05/13 00:51:05;;;;;;;4.43;2.20;;;;;;;;;;5058010;28;20239;-71
2022/05/13 00:53:34;;;;;;;6.00;2.50;;;;;;;;;;5057854;28;20612;-70
2022/05/13 00:56:02;;;;;;;6.33;2.27;;;;;;;;;;5057957;28;20231;-71
2022/05/13 00:58:30;;;;;;;5.87;2.23;;;;;;;;;;5061670;28;20257;-71
2022/05/13 01:01:00;;;;;;;5.60;2.60;;;;;;;;;;5069715;28;20222;-71
2022/05/13 01:03:28;;;;;;;6.23;2.37;;;;;;;;;;5076618;28;20206;-71
2022/05/13 01:05:58;;;;;;;2.93;2.00;;;;;;;;;;5065510;28;20227;-72
2022/05/13 01:08:27;;;;;;;5.30;2.23;;;;;;;;;;5057508;28;20260;-71
2022/05/13 01:10:56;;;;;;;4.27;2.30;;;;;;;;;;5057874;28;20234;-73
2022/05/13 01:13:28;;;;;;;4.40;2.20;;;;;;;;;;5057529;28;20256;-72
2022/05/13 01:15:56;;;;;;;5.30;2.30;;;;;;;;;;5071465;28;20218;-72
2022/05/13 01:18:26;;;;;;;5.83;2.93;;;;;;;;;;5057962;28;20252;-71
2022/05/13 01:20:55;;;;;;;3.23;2.00;;;;;;;;;;5057678;28;20203;-73
2022/05/13 01:23:26;;;;;;;6.67;2.63;;;;;;;;;;5057761;28;20241;-72
2022/05/13 01:25:56;;;;;;;4.37;2.10;;;;;;;;;;5057247;28;20233;-73
2022/05/13 01:28:25;;;;;;;5.10;2.50;;;;;;;;;;5057006;28;20245;-71
2022/05/13 01:30:55;;;;;;;8.87;2.77;;;;;;;;;;5061048;28;20202;-72
2022/05/13 01:33:24;;;;;;;6.10;2.50;;;;;;;;;;5071901;28;20231;-72
2022/05/13 01:35:53;;;;;;;5.57;2.47;;;;;;;;;;5072634;28;20665;-72
2022/05/13 01:38:22;;;;;;;3.97;2.33;;;;;;;;;;5074830;28;20206;-73
2022/05/13 01:40:51;;;;;;;7.10;2.20;;;;;;;;;;5076153;28;20222;-72
2022/05/13 01:43:20;;;;;;;3.97;2.30;;;;;;;;;;5076055;28;20231;-72
2022/05/13 01:45:48;;;;;;;3.83;2.33;;;;;;;;;;5076125;28;20218;-71
2022/05/13 01:48:16;;;;;;;5.37;2.33;;;;;;;;;;5077465;28;20279;-74
2022/05/13 01:50:45;;;;;;;2.87;1.80;;;;;;;;;;5075899;28;20221;-74
2022/05/13 01:53:13;;;;;;;3.93;3.07;;;;;;;;;;5077080;28;20565;-72
2022/05/13 01:55:43;;;;;;;5.97;2.53;;;;;;;;;;5075839;28;20230;-72
2022/05/13 01:58:13;;;;;;;11.00;2.63;;;;;;;;;;5077239;28;20616;-73
2022/05/13 02:00:42;;;;;;;5.40;2.53;;;;;;;;;;5076607;28;20260;-73
2022/05/13 02:06:10;;;;;;;6.10;2.37;;;;;;;;;;5013362;28;20228;-72
2022/05/13 02:08:38;;;;;;;5.87;2.10;;;;;;;;;;5015094;28;20263;-72
2022/05/13 02:11:06;;;;;;;5.03;2.30;;;;;;;;;;5016292;28;20208;-72
2022/05/13 02:13:36;;;;;;;5.87;2.43;;;;;;;;;;5034985;28;20235;-72
2022/05/13 02:16:04;;;;;;;6.43;2.20;;;;;;;;;;5039264;28;20235;-72
2022/05/13 02:18:33;;;;;;;6.67;2.40;;;;;;;;;;5041082;28;20250;-72
2022/05/13 02:21:01;;;;;;;4.20;2.30;;;;;;;;;;5040493;28;20231;-72
2022/05/13 02:23:29;;;;;;;7.20;2.67;;;;;;;;;;5040926;28;20207;-72
2022/05/13 02:25:59;;;;;;;5.80;2.33;;;;;;;;;;5040794;28;20231;-72
2022/05/13 02:28:27;;;;;;;5.80;2.17;;;;;;;;;;5040877;28;20208;-72
2022/05/13 02:30:56;;;;;;;8.07;2.53;;;;;;;;;;5040363;28;20199;-72
2022/05/13 02:33:24;;;;;;;6.20;2.00;;;;;;;;;;5034655;28;20218;-72
2022/05/13 02:35:52;;;;;;;3.30;2.20;;;;;;;;;;5039662;28;20224;-72
2022/05/13 02:38:20;;;;;;;5.73;2.17;;;;;;;;;;5040651;28;20262;-73
2022/05/13 02:43:34;;;;;;;6.07;2.10;;;;;;;;;;5040827;28;20204;-73
2022/05/13 02:46:03;;;;;;;3.37;2.20;;;;;;;;;;5039491;28;20248;-73
2022/05/13 02:48:31;;;;;;;7.00;2.40;;;;;;;;;;5039616;28;20214;-72
2022/05/13 02:50:59;;;;;;;6.70;2.47;;;;;;;;;;5040548;28;20231;-72
2022/05/13 02:53:27;;;;;;;5.07;2.10;;;;;;;;;;5040797;28;20245;-72
2022/05/13 02:55:55;;;;;;;8.97;2.30;;;;;;;;;;5040418;28;20277;-73
2022/05/13 02:58:24;;;;;;;4.60;2.27;;;;;;;;;;5040516;28;20290;-73
2022/05/13 03:00:52;;;;;;;6.57;2.13;;;;;;;;;;5026808;28;20234;-73
2022/05/13 03:03:22;;;;;;;6.80;2.40;;;;;;;;;;5040318;28;20577;-72
2022/05/13 03:05:50;;;;;;;5.97;2.70;;;;;;;;;;5059504;28;20262;-73
2022/05/13 03:08:19;;;;;;;5.73;2.20;;;;;;;;;;5059779;28;20210;-73
2022/05/13 03:10:47;;;;;;;5.47;2.23;;;;;;;;;;5059947;28;20237;-72
2022/05/13 03:13:18;;;;;;;5.30;2.77;;;;;;;;;;5059763;28;20203;-71
2022/05/13 03:15:46;;;;;;;5.70;3.20;;;;;;;;;;5059507;28;20227;-72
2022/05/13 03:18:14;;;;;;;3.40;2.73;;;;;;;;;;5059990;28;20213;-74
2022/05/13 03:20:44;;;;;;;4.53;2.03;;;;;;;;;;5059455;28;20262;-73
2022/05/13 03:23:12;;;;;;;8.20;2.07;;;;;;;;;;5059306;28;20678;-73
2022/05/13 03:25:40;;;;;;;7.93;2.13;;;;;;;;;;5058456;28;20277;-73
2022/05/13 03:28:10;;;;;;;3.30;2.00;;;;;;;;;;5059657;28;20238;-72
2022/05/13 03:30:38;;;;;;;3.97;1.90;;;;;;;;;;5059679;28;20203;-74
2022/05/13 03:33:06;;;;;;;6.90;2.50;;;;;;;;;;5070900;28;20634;-73
2022/05/13 03:35:34;;;;;;;4.70;2.60;;;;;;;;;;5079420;28;20256;-74
2022/05/13 03:38:04;;;;;;;4.77;2.37;;;;;;;;;;5079646;28;20272;-71
2022/05/13 03:40:32;;;;;;;8.33;2.93;;;;;;;;;;5079688;28;20264;-72
2022/05/13 03:43:00;;;;;;;7.30;2.27;;;;;;;;;;5079405;28;20572;-71
2022/05/13 03:45:30;;;;;;;5.93;2.37;;;;;;;;;;5079637;28;20252;-72
2022/05/13 03:47:58;;;;;;;6.90;2.47;;;;;;;;;;5078390;28;20688;-72
2022/05/13 03:50:26;;;;;;;2.97;2.33;;;;;;;;;;5078002;28;20202;-72
2022/05/13 03:52:55;;;;;;;3.20;2.37;;;;;;;;;;5079215;28;20206;-72
2022/05/13 03:55:24;;;;;;;4.53;2.53;;;;;;;;;;5079107;28;20260;-71
2022/05/13 03:57:58;;;;;;;6.10;2.90;;;;;;;;;;5079265;28;20205;-72
2022/05/13 04:00:26;;;;;;;6.57;2.27;;;;;;;;;;5075712;28;20309;-71
2022/05/13 04:02:54;;;;;;;4.23;2.37;;;;;;;;;;5066005;28;20210;-71
2022/05/13 04:10:55;;;;;;;6.63;2.63;;;;;;;;;;5070036;28;20191;-73
2022/05/13 04:16:09;;;;;;;8.93;2.37;;;;;;;;;;5064418;28;20249;-65
2022/05/13 04:18:38;;;;;;;6.53;2.47;;;;;;;;;;5071813;28;20206;-65
2022/05/13 04:21:07;;;;;;;6.37;4.13;;;;;;;;;;5070510;28;20217;-65
2022/05/13 04:23:36;;;;;;;5.20;2.23;;;;;;;;;;5061393;28;20246;-65
2022/05/13 04:26:06;;;;;;;5.80;2.53;;;;;;;;;;5062880;28;20252;-73
2022/05/13 04:28:34;;;;;;;6.43;2.80;;;;;;;;;;5060640;28;20196;-74
2022/05/13 04:31:02;;;;;;;5.40;2.67;;;;;;;;;;5073689;28;20206;-74
2022/05/13 04:33:35;;;;;;;4.13;2.30;;;;;;;;;;5062779;28;20199;-73
2022/05/13 04:36:04;;;;;;;8.33;2.57;;;;;;;;;;5067777;28;20249;-73
2022/05/13 04:38:32;;;;;;;4.13;2.50;;;;;;;;;;5057760;28;20261;-73
2022/05/13 04:42:49;;;;;;;6.13;2.90;;;;;;;;;;5058011;28;20282;-73
2022/05/13 04:43:49;;;;;;;8.53;2.77;;;;;;;;;;5057946;28;20203;-73
2022/05/13 04:46:18;;;;;;;10.47;2.83;;;;;;;;;;5057912;28;20234;-73
2022/05/13 04:48:47;;;;;;;7.17;2.80;;;;;;;;;;5068165;28;20796;-74
2022/05/13 04:51:18;;;;;;;9.60;3.60;;;;;;;;;;5076831;28;20653;-73
2022/05/13 04:53:46;;;;;;;4.40;2.50;;;;;;;;;;5077572;28;20225;-73
2022/05/13 04:56:14;;;;;;;4.00;2.50;;;;;;;;;;5077677;28;20242;-73
2022/05/13 04:58:42;;;;;;;5.50;2.97;;;;;;;;;;5077656;28;20210;-73
2022/05/13 05:01:12;;;;;;;6.47;2.50;;;;;;;;;;5067231;28;20256;-74
2022/05/13 05:03:41;;;;;;;5.13;2.70;;;;;;;;;;5072683;28;20287;-74
2022/05/13 05:06:09;;;;;;;6.70;2.70;;;;;;;;;;5061575;28;20229;-73
2022/05/13 05:08:38;;;;;;;5.97;3.90;;;;;;;;;;5068010;28;20238;-71
2022/05/13 05:11:07;;;;;;;4.47;2.57;;;;;;;;;;5056513;28;20206;-71
2022/05/13 05:13:36;;;;;;;7.33;3.13;;;;;;;;;;5056613;28;20260;-71
2022/05/13 05:16:05;;;;;;;4.87;2.47;;;;;;;;;;5060623;28;20253;-71
2022/05/13 05:18:35;;;;;;;9.53;2.80;;;;;;;;;;5059734;28;20576;-70
2022/05/13 05:21:03;;;;;;;11.67;3.30;;;;;;;;;;5057156;28;20230;-71
2022/05/13 05:23:33;;;;;;;8.07;3.27;;;;;;;;;;5068784;28;20252;-72
2022/05/13 05:26:01;;;;;;;6.23;3.17;;;;;;;;;;5077544;28;20230;-72
2022/05/13 05:28:30;;;;;;;4.23;2.70;;;;;;;;;;5077148;28;20209;-72
2022/05/13 05:31:00;;;;;;;6.73;2.50;;;;;;;;;;5077285;28;20719;-72
2022/05/13 05:33:28;;;;;;;4.53;2.53;;;;;;;;;;5061570;28;20203;-70
2022/05/13 05:35:58;;;;;;;5.77;2.90;;;;;;;;;;5064972;28;20288;-69
2022/05/13 05:38:26;;;;;;;8.63;3.40;;;;;;;;;;5072113;28;20264;-69
2022/05/13 05:40:55;;;;;;;9.53;3.13;;;;;;;;;;5077154;28;20208;-70
2022/05/13 05:43:23;;;;;;;7.83;2.63;;;;;;;;;;5077039;28;20759;-70
2022/05/13 05:45:51;;;;;;;5.93;2.60;;;;;;;;;;5076963;28;20253;-70
2022/05/13 05:48:22;;;;;;;6.93;3.30;;;;;;;;;;5077230;28;20209;-70
2022/05/13 05:50:51;;;;;;;6.53;3.20;;;;;;;;;;5078644;28;20202;-70
2022/05/13 05:57:13;;;;;;;9.23;4.47;;;;;;;;;;5073960;28;20225;-72
2022/05/13 05:58:57;;;;;;;4.47;3.10;;;;;;;;;;5067651;28;20682;-70
2022/05/13 06:01:25;;;;;;;6.60;2.70;;;;;;;;;;5067844;28;20697;-70
2022/05/13 06:03:53;;;;;;;7.87;4.10;;;;;;;;;;5060430;28;20239;-69
2022/05/13 06:06:21;;;;;;;6.80;3.80;;;;;;;;;;5060545;28;20586;-75
2022/05/13 06:08:54;;;;;;;7.20;3.23;;;;;;;;;;5060871;28;20206;-74
2022/05/13 06:11:23;;;;;;;8.70;3.73;;;;;;;;;;5060577;28;20280;-75
2022/05/13 06:13:52;;;;;;;6.37;2.83;;;;;;;;;;5060727;28;20211;-73
2022/05/13 06:16:20;;;;;;;10.97;3.77;;;;;;;;;;5065112;28;20258;-70
2022/05/13 06:18:48;;;;;;;7.37;3.73;;;;;;;;;;5072842;28;20238;-71
2022/05/13 06:21:16;;;;;;;8.57;3.60;;;;;;;;;;5060279;28;20211;-72
2022/05/13 06:23:44;;;;;;;7.23;4.27;;;;;;;;;;5061502;28;20203;-71
2022/05/13 06:26:13;;;;;;;5.40;3.37;;;;;;;;;;5080358;28;20233;-71
2022/05/13 06:28:41;;;;;;;5.13;3.53;;;;;;;;;;5080416;28;20268;-71
2022/05/13 06:31:09;;;;;;;7.80;3.77;;;;;;;;;;5069922;28;20218;-71
2022/05/13 06:33:38;;;;;;;5.53;3.37;;;;;;;;;;5060471;28;20731;-71
2022/05/13 06:36:06;;;;;;;5.57;3.93;;;;;;;;;;5073890;28;20235;-65
2022/05/13 06:38:34;;;;;;;11.13;6.10;;;;;;;;;;5079684;28;20202;-65
2022/05/13 06:41:02;;;;;;;6.07;3.57;;;;;;;;;;5080049;28;20233;-71
2022/05/13 06:43:31;;;;;;;5.20;3.80;;;;;;;;;;5069212;28;20226;-72
2022/05/13 06:45:59;;;;;;;6.40;3.90;;;;;;;;;;5071734;28;20272;-72
2022/05/13 06:48:28;;;;;;;8.47;3.97;;;;;;;;;;5069088;28;20199;-71
2022/05/13 06:50:56;;;;;;;9.10;4.40;;;;;;;;;;5071106;28;20202;-72
2022/05/13 06:53:24;;;;;;;6.10;3.67;;;;;;;;;;5071368;28;20214;-72
2022/05/13 06:55:52;;;;;;;7.30;4.20;;;;;;;;;;5068950;28;20218;-73
2022/05/13 06:58:20;;;;;;;8.10;4.13;;;;;;;;;;5073091;28;20256;-72
2022/05/13 07:00:50;;;;;;;7.83;3.73;;;;;;;;;;5071110;28;20282;-73
2022/05/13 07:03:20;;;;;;;10.73;4.27;;;;;;;;;;5069884;28;20225;-72
2022/05/13 07:05:49;;;;;;;7.43;4.00;;;;;;;;;;5069843;28;20219;-73
2022/05/13 07:08:17;;;;;;;8.90;4.30;;;;;;;;;;5065046;28;20221;-73
2022/05/13 07:10:45;;;;;;;6.40;4.13;;;;;;;;;;5072875;28;20209;-71
2022/05/13 07:13:14;;;;;;;5.13;3.97;;;;;;;;;;5067543;28;20554;-71
2022/05/13 07:15:43;;;;;;;7.60;4.40;;;;;;;;;;5070189;28;20250;-72
2022/05/13 07:18:13;;;;;;;4.40;3.90;;;;;;;;;;5074435;28;20369;-70
2022/05/13 07:20:41;;;;;;;7.03;4.20;;;;;;;;;;5058881;28;20616;-70
2022/05/13 07:23:09;;;;;;;8.77;4.30;;;;;;;;;;5069397;28;20222;-70
2022/05/13 07:25:38;;;;;;;10.53;5.23;;;;;;;;;;5077897;28;20237;-71
2022/05/13 07:28:06;;;;;;;9.07;4.47;;;;;;;;;;5079590;28;20215;-71
2022/05/13 07:30:34;;;;;;;8.23;4.00;;;;;;;;;;5079103;28;20206;-71
2022/05/13 07:33:02;;;;;;;8.27;4.27;;;;;;;;;;5079251;28;20209;-73
2022/05/13 07:35:32;;;;;;;8.10;4.80;;;;;;;;;;5078606;28;20228;-74
2022/05/13 07:38:00;;;;;;;9.87;4.33;;;;;;;;;;5063889;28;20668;-74
2022/05/13 07:43:13;;;;;;;17.70;11.07;;;;;;;;;;5059077;28;20227;-66
2022/05/13 07:45:41;;;;;;;127.47;74.67;;;;;;;;;;5061264;28;20224;-69
2022/05/13 07:48:09;;;;;;;12.50;9.87;;;;;;;;;;5065926;28;20220;-69
2022/05/13 07:50:39;;;;;;;7.40;6.00;;;;;;;;;;5058202;28;20207;-71
2022/05/13 07:53:07;;;;;;;10.47;5.30;;;;;;;;;;5077385;28;20260;-69
2022/05/13 07:55:35;;;;;;;9.00;5.73;;;;;;;;;;5075928;28;20222;-71
2022/05/13 07:58:04;;;;;;;10.70;5.93;;;;;;;;;;5076520;28;20209;-69
2022/05/13 08:00:33;;;;;;;9.87;5.43;;;;;;;;;;5062945;28;20254;-66
2022/05/13 08:03:02;;;;;;;7.00;5.27;;;;;;;;;;5067287;28;20231;-71
2022/05/13 08:05:31;;;;;;;12.70;6.10;;;;;;;;;;5068008;28;20252;-69
2022/05/13 08:08:06;;;;;;;13.90;6.30;;;;;;;;;;5062030;28;20207;-69
2022/05/13 08:10:35;;;;;;;7.90;6.20;;;;;;;;;;5069892;28;20203;-70
2022/05/13 08:13:03;;;;;;;10.73;5.53;;;;;;;;;;5065638;28;20195;-71
2022/05/13 08:15:32;;;;;;;7.03;5.33;;;;;;;;;;5071200;28;20214;-68
2022/05/13 08:18:00;;;;;;;12.03;5.97;;;;;;;;;;5066115;28;20198;-69
2022/05/13 08:20:28;;;;;;;10.27;6.40;;;;;;;;;;5067401;28;20252;-67
2022/05/13 08:22:56;;;;;;;9.80;5.30;;;;;;;;;;5067650;28;20223;-70
2022/05/13 08:25:26;;;;;;;8.27;5.70;;;;;;;;;;5068350;28;20222;-68
2022/05/13 08:27:54;;;;;;;8.90;5.23;;;;;;;;;;5066405;28;20253;-68
2022/05/13 08:30:23;;;;;;;7.87;5.43;;;;;;;;;;5066782;28;20251;-69
2022/05/13 08:32:51;;;;;;;10.30;4.60;;;;;;;;;;5069075;28;20195;-68
2022/05/13 08:35:20;;;;;;;11.57;5.17;;;;;;;;;;5071280;28;21151;-68
2022/05/13 08:37:50;;;;;;;8.40;4.93;;;;;;;;;;5070933;28;20204;-70
2022/05/13 08:40:23;;;;;;;10.60;5.03;;;;;;;;;;5067055;28;20667;-71
2022/05/13 08:42:53;;;;;;;6.33;4.70;;;;;;;;;;5066479;28;20623;-71
2022/05/13 08:45:22;;;;;;;7.10;4.43;;;;;;;;;;5072692;28;20229;-68
2022/05/13 08:47:52;;;;;;;7.00;4.50;;;;;;;;;;5068844;28;20251;-72
2022/05/13 08:50:25;;;;;;;10.57;5.00;;;;;;;;;;5068315;28;20214;-73
2022/05/13 08:53:08;;;;;;;5.50;3.80;;;;;;;;;;5070306;28;20261;-70
2022/05/13 08:55:39;;;;;;;10.53;4.77;;;;;;;;;;5067855;28;20219;-71
2022/05/13 08:58:11;;;;;;;7.97;5.00;;;;;;;;;;5069166;28;20232;-70
2022/05/13 09:00:42;;;;;;;8.27;5.50;;;;;;;;;;5071769;28;20800;-72
2022/05/13 09:03:14;;;;;;;9.77;4.60;;;;;;;;;;5069260;28;20230;-70
2022/05/13 09:05:44;;;;;;;11.50;4.97;;;;;;;;;;5068472;28;20219;-72
2022/05/13 09:08:12;;;;;;;12.80;5.37;;;;;;;;;;5067344;28;20202;-71
2022/05/13 09:10:44;;;;;;;8.63;4.37;;;;;;;;;;5064599;28;20236;-71
2022/05/13 09:13:18;;;;;;;9.73;5.23;;;;;;;;;;5077555;28;20206;-71
2022/05/13 09:15:55;;;;;;;6.30;4.00;;;;;;;;;;5076612;28;20230;-71
2022/05/13 09:18:27;;;;;;;6.40;4.20;;;;;;;;;;5071662;28;20207;-72
2022/05/13 09:20:56;;;;;;;6.17;4.67;;;;;;;;;;5067769;28;20673;-71
2022/05/13 09:23:25;;;;;;;9.07;5.77;;;;;;;;;;5059118;28;20272;-67
2022/05/13 09:26:05;;;;;;;13.13;5.97;;;;;;;;;;5057367;28;20240;-68
2022/05/13 09:28:35;;;;;;;7.50;4.40;;;;;;;;;;5074177;28;20210;-66
2022/05/13 09:31:19;;;;;;;9.13;4.57;;;;;;;;;;5057400;28;20618;-72
2022/05/13 09:34:18;;;;;;;8.03;4.47;;;;;;;;;;5077207;28;20202;-66
2022/05/13 09:36:48;;;;;;;11.70;4.87;;;;;;;;;;5074238;28;20724;-65
2022/05/13 09:39:26;;;;;;;8.47;4.37;;;;;;;;;;5057182;28;20293;-65
2022/05/13 09:41:54;;;;;;;10.83;4.80;;;;;;;;;;5057201;28;20246;-66
2022/05/13 09:44:27;;;;;;;8.57;5.03;;;;;;;;;;5057122;28;20749;-67
2022/05/13 09:47:08;;;;;;;5.37;4.40;;;;;;;;;;5056812;28;20215;-65
2022/05/13 09:49:57;;;;;;;8.33;4.87;;;;;;;;;;5056743;28;20297;-67
2022/05/13 09:52:27;;;;;;;8.87;4.63;;;;;;;;;;5067907;28;20234;-66
2022/05/13 09:54:56;;;;;;;6.47;4.93;;;;;;;;;;5077094;28;20213;-65
2022/05/13 09:57:32;;;;;;;9.57;5.57;;;;;;;;;;5076050;28;20254;-65
2022/05/13 10:00:04;;;;;;;6.40;4.17;;;;;;;;;;5070935;28;20232;-66
2022/05/13 10:02:38;;;;;;;7.23;4.90;;;;;;;;;;5066033;28;20643;-67
2022/05/13 10:05:15;;;;;;;5.93;4.63;;;;;;;;;;5067982;28;20697;-67
2022/05/13 10:07:48;;;;;;;5.80;5.10;;;;;;;;;;5061132;28;20210;-65
2022/05/13 10:15:56;;;;;;;8.47;4.70;;;;;;;;;;5073850;28;20224;-68
2022/05/13 10:18:26;;;;;;;5.57;5.07;;;;;;;;;;5070409;28;20208;-66
2022/05/13 10:20:55;;;;;;;8.43;4.40;;;;;;;;;;5059431;28;20203;-66
2022/05/13 10:23:27;;;;;;;7.10;4.53;;;;;;;;;;5076459;28;20265;-66
2022/05/13 10:25:57;;;;;;;4.93;4.43;;;;;;;;;;5062586;28;20218;-65
2022/05/13 10:28:29;;;;;;;6.03;4.60;;;;;;;;;;5074655;28;20206;-65
2022/05/13 10:31:02;;;;;;;6.73;5.10;;;;;;;;;;5072534;28;20255;-65
2022/05/13 10:33:33;;;;;;;6.77;5.77;;;;;;;;;;5058053;28;20209;-65
2022/05/13 10:36:03;;;;;;;5.33;4.23;;;;;;;;;;5068498;28;20225;-66
2022/05/13 10:38:31;;;;;;;7.80;5.10;;;;;;;;;;5059122;28;20234;-66
2022/05/13 10:41:04;;;;;;;7.77;4.93;;;;;;;;;;5066671;28;20210;-66
2022/05/13 10:43:36;;;;;;;9.10;5.27;;;;;;;;;;5079163;28;20212;-66
2022/05/13 10:46:11;;;;;;;5.00;4.50;;;;;;;;;;5080172;28;20273;-66
2022/05/13 10:48:39;;;;;;;7.40;5.33;;;;;;;;;;5079954;28;20209;-67
2022/05/13 10:51:12;;;;;;;9.20;4.87;;;;;;;;;;5070189;28;20760;-66
2022/05/13 10:53:49;;;;;;;4.90;4.40;;;;;;;;;;5080067;28;20208;-67
2022/05/13 10:56:23;;;;;;;5.63;5.00;;;;;;;;;;5080200;28;20233;-66
2022/05/13 10:59:03;;;;;;;6.30;4.97;;;;;;;;;;5062633;28;20200;-66
2022/05/13 11:01:40;;;;;;;5.20;4.70;;;;;;;;;;5062951;28;20347;-67
2022/05/13 11:04:11;;;;;;;7.53;4.73;;;;;;;;;;5059718;28;20241;-66
2022/05/13 11:06:49;;;;;;;10.70;5.10;;;;;;;;;;5063539;28;20317;-66
2022/05/13 11:09:23;;;;;;;6.07;5.10;;;;;;;;;;5067099;28;20208;-67
2022/05/13 11:11:55;;;;;;;8.80;5.23;;;;;;;;;;5059518;28;20262;-66
2022/05/13 11:14:32;;;;;;;8.33;6.00;;;;;;;;;;5076107;28;20228;-66
2022/05/13 11:17:07;;;;;;;8.10;5.17;;;;;;;;;;5068999;28;20261;-68
2022/05/13 11:19:38;;;;;;;9.10;5.50;;;;;;;;;;5070265;28;20256;-68
2022/05/13 11:22:11;;;;;;;6.00;4.90;;;;;;;;;;5070786;28;20204;-67
2022/05/13 11:27:39;;;;;;;9.07;5.20;;;;;;;;;;5071607;28;20548;-69
2022/05/13 11:30:16;;;;;;;6.33;5.73;;;;;;;;;;5069000;28;20755;-68
2022/05/13 11:32:48;;;;;;;7.27;5.10;;;;;;;;;;5067023;28;20204;-67
2022/05/13 11:35:29;;;;;;;6.77;5.40;;;;;;;;;;5071827;28;20286;-68
2022/05/13 11:38:00;;;;;;;8.47;5.83;;;;;;;;;;5062757;28;20215;-67
2022/05/13 11:40:30;;;;;;;7.13;5.37;;;;;;;;;;5059086;28;20567;-67
2022/05/13 11:43:22;;;;;;;7.83;5.33;;;;;;;;;;5059075;28;20224;-67
2022/05/13 11:46:20;;;;;;;5.97;5.23;;;;;;;;;;5059105;28;20262;-66
2022/05/13 11:48:51;;;;;;;6.60;5.20;;;;;;;;;;5059229;28;20212;-68
2022/05/13 11:51:20;;;;;;;10.90;6.00;;;;;;;;;;5058614;28;20739;-67
2022/05/13 11:53:51;;;;;;;9.17;5.57;;;;;;;;;;5058768;28;20211;-67
2022/05/13 11:56:33;;;;;;;6.57;5.33;;;;;;;;;;5058890;28;20223;-68
2022/05/13 11:59:02;;;;;;;6.57;5.77;;;;;;;;;;5060797;28;20205;-67
2022/05/13 12:01:49;;;;;;;9.10;6.77;;;;;;;;;;5062826;28;20254;-70
2022/05/13 12:04:32;;;;;;;6.17;5.40;;;;;;;;;;5063465;28;20256;-68
2022/05/13 12:07:17;;;;;;;8.07;7.03;;;;;;;;;;5056714;28;20263;-69
2022/05/13 12:09:46;;;;;;;9.17;6.53;;;;;;;;;;5058979;28;20206;-72
2022/05/13 12:12:24;;;;;;;7.60;6.20;;;;;;;;;;5066523;28;20278;-73
2022/05/13 12:14:57;;;;;;;8.73;6.67;;;;;;;;;;5069338;28;20667;-73
2022/05/13 12:17:29;;;;;;;7.97;5.70;;;;;;;;;;5072567;28;20220;-73
2022/05/13 12:20:05;;;;;;;7.07;6.00;;;;;;;;;;5067327;28;20204;-74
2022/05/13 12:22:39;;;;;;;9.40;5.77;;;;;;;;;;5069569;28;20656;-73
2022/05/13 12:25:08;;;;;;;6.63;5.90;;;;;;;;;;5070372;28;20232;-73
2022/05/13 12:27:39;;;;;;;13.27;6.10;;;;;;;;;;5070148;28;20204;-73
2022/05/13 12:30:11;;;;;;;7.80;5.97;;;;;;;;;;5069991;28;20202;-73
2022/05/13 12:32:41;;;;;;;7.43;6.17;;;;;;;;;;5070145;28;20196;-75
2022/05/13 12:38:04;;;;;;;9.03;6.27;;;;;;;;;;5067097;28;20234;-73
2022/05/13 12:40:35;;;;;;;8.17;6.43;;;;;;;;;;5069545;28;20207;-74
2022/05/13 12:43:07;;;;;;;7.17;5.50;;;;;;;;;;5065417;28;20669;-74
2022/05/13 12:45:56;;;;;;;8.23;6.53;;;;;;;;;;5062119;28;20276;-74
2022/05/13 12:48:24;;;;;;;7.83;6.40;;;;;;;;;;5066926;28;20205;-74
2022/05/13 12:50:53;;;;;;;9.27;6.17;;;;;;;;;;5069508;28;20238;-73
2022/05/13 12:53:38;;;;;;;7.57;6.20;;;;;;;;;;5065151;28;20653;-73
2022/05/13 12:56:11;;;;;;;7.67;6.07;;;;;;;;;;5065074;28;20222;-73
2022/05/13 12:58:42;;;;;;;6.37;5.77;;;;;;;;;;5066060;28;20225;-73
2022/05/13 13:01:11;;;;;;;10.03;6.50;;;;;;;;;;5069309;28;20230;-73
2022/05/13 13:03:41;;;;;;;8.67;5.60;;;;;;;;;;5066173;28;20230;-73
2022/05/13 13:06:12;;;;;;;6.50;5.83;;;;;;;;;;5070675;28;20222;-73
2022/05/13 13:08:43;;;;;;;6.87;5.63;;;;;;;;;;5069267;28;20684;-73
2022/05/13 13:11:21;;;;;;;8.50;6.10;;;;;;;;;;5069203;28;20240;-69
2022/05/13 13:13:51;;;;;;;7.73;5.67;;;;;;;;;;5070202;28;20194;-69
2022/05/13 13:16:27;;;;;;;8.60;5.97;;;;;;;;;;5068971;28;20216;-70
2022/05/13 13:19:10;;;;;;;7.67;5.50;;;;;;;;;;5068985;28;20208;-69
2022/05/13 13:21:38;;;;;;;6.50;5.73;;;;;;;;;;5054652;28;20210;-69
2022/05/13 13:24:13;;;;;;;8.17;5.43;;;;;;;;;;5057626;28;20203;-67
2022/05/13 13:26:41;;;;;;;8.53;6.10;;;;;;;;;;5057241;28;20263;-67
2022/05/13 13:29:11;;;;;;;7.87;5.53;;;;;;;;;;5057050;28;20683;-67
2022/05/13 13:31:42;;;;;;;8.73;6.70;;;;;;;;;;5057455;28;20261;-66
2022/05/13 13:34:22;;;;;;;7.27;6.07;;;;;;;;;;5058264;28;20207;-68
2022/05/13 13:36:50;;;;;;;6.80;5.30;;;;;;;;;;5068174;28;20223;-67
2022/05/13 13:39:40;;;;;;;8.63;5.20;;;;;;;;;;5056817;28;20225;-67
2022/05/13 13:42:09;;;;;;;7.10;5.27;;;;;;;;;;5057132;28;20216;-67
2022/05/13 13:44:38;;;;;;;7.73;6.93;;;;;;;;;;5077668;28;20220;-67
2022/05/13 13:47:08;;;;;;;7.03;5.23;;;;;;;;;;5067955;28;20247;-67
2022/05/13 13:49:37;;;;;;;10.50;5.17;;;;;;;;;;5069852;28;20205;-66
2022/05/13 13:52:12;;;;;;;6.50;5.43;;;;;;;;;;5068622;28;20262;-66
2022/05/13 13:54:42;;;;;;;6.80;4.90;;;;;;;;;;5076730;28;20577;-67
2022/05/13 13:57:26;;;;;;;7.97;5.37;;;;;;;;;;5077092;28;20226;-67
2022/05/13 14:00:01;;;;;;;7.33;5.27;;;;;;;;;;5073983;28;20206;-66
2022/05/13 14:02:34;;;;;;;6.10;5.50;;;;;;;;;;5075793;28;20202;-67
2022/05/13 14:05:02;;;;;;;5.67;4.97;;;;;;;;;;5075717;28;20235;-67
2022/05/13 14:07:30;;;;;;;10.33;6.17;;;;;;;;;;5076793;28;20689;-67
2022/05/13 14:10:00;;;;;;;6.50;5.40;;;;;;;;;;5077371;28;20210;-67
2022/05/13 14:12:33;;;;;;;6.27;5.67;;;;;;;;;;5081087;28;20215;-67
2022/05/13 14:15:04;;;;;;;7.30;5.63;;;;;;;;;;5065931;28;20713;-67
2022/05/13 14:17:33;;;;;;;5.93;4.87;;;;;;;;;;5061296;28;20202;-66
2022/05/13 14:20:04;;;;;;;7.37;5.67;;;;;;;;;;5076796;28;20657;-67
2022/05/13 14:22:33;;;;;;;6.17;5.57;;;;;;;;;;5080955;28;20265;-66
2022/05/13 14:25:06;;;;;;;9.20;5.90;;;;;;;;;;5080388;28;20215;-69
2022/05/13 14:27:34;;;;;;;5.57;5.03;;;;;;;;;;5071546;28;20268;-69
2022/05/13 14:30:06;;;;;;;8.20;5.13;;;;;;;;;;5070403;28;20194;-70
2022/05/13 14:32:35;;;;;;;7.87;5.10;;;;;;;;;;5073537;28;20201;-69
2022/05/13 14:35:06;;;;;;;6.30;5.03;;;;;;;;;;5070890;28;20677;-69
2022/05/13 14:37:35;;;;;;;5.40;4.60;;;;;;;;;;5071166;28;20243;-69
2022/05/13 14:40:09;;;;;;;7.17;5.07;;;;;;;;;;5071115;28;20205;-69
2022/05/13 14:42:40;;;;;;;7.77;5.10;;;;;;;;;;5072613;28;20202;-69
2022/05/13 14:45:20;;;;;;;9.27;5.40;;;;;;;;;;5075794;28;20240;-69
2022/05/13 14:47:49;;;;;;;5.90;4.50;;;;;;;;;;5076784;28;20228;-71
2022/05/13 14:50:19;;;;;;;7.97;5.17;;;;;;;;;;5080981;28;20205;-70
2022/05/13 14:52:49;;;;;;;8.80;5.50;;;;;;;;;;5072368;28;20197;-76
2022/05/13 14:55:24;;;;;;;6.80;4.70;;;;;;;;;;5074074;28;20200;-79
2022/05/13 14:57:53;;;;;;;6.00;4.73;;;;;;;;;;5063707;28;20205;-78
2022/05/13 15:00:22;;;;;;;7.97;4.90;;;;;;;;;;5073652;28;20202;-78
2022/05/13 15:02:58;;;;;;;7.03;4.80;;;;;;;;;;5072671;28;20206;-70
2022/05/13 15:05:30;;;;;;;5.33;4.83;;;;;;;;;;5070180;28;20668;-70
2022/05/13 15:07:58;;;;;;;6.10;4.47;;;;;;;;;;5071474;28;20257;-70
2022/05/13 15:10:29;;;;;;;6.77;5.17;;;;;;;;;;5062928;28;20307;-70
2022/05/13 15:12:57;;;;;;;6.20;5.60;;;;;;;;;;5067749;28;20229;-70
2022/05/13 15:15:26;;;;;;;7.27;4.73;;;;;;;;;;5066496;28;20218;-70
2022/05/13 15:17:56;;;;;;;6.67;4.63;;;;;;;;;;5064084;28;20263;-70
2022/05/13 15:20:25;;;;;;;7.27;5.00;;;;;;;;;;5070422;28;20199;-69
2022/05/13 15:22:53;;;;;;;5.60;4.87;;;;;;;;;;5059911;28;20239;-70
2022/05/13 15:25:28;;;;;;;7.53;4.63;;;;;;;;;;5073096;28;20230;-71
2022/05/13 15:27:57;;;;;;;5.77;4.60;;;;;;;;;;5059365;28;20227;-72
2022/05/13 15:30:26;;;;;;;7.97;5.10;;;;;;;;;;5059343;28;20207;-69
2022/05/13 15:32:54;;;;;;;6.40;4.60;;;;;;;;;;5059345;28;20675;-72